Time;durP1;ratioP1;P1;durP2;ratioP2;P2;SDS_P1;SDS_P2;PMS_P1;PMS_P2;Temp;Humidity;BMP_temperature;BMP_pressure;BME280_temperature;BME280_humidity;BME280_pressure;Samples;Min_cycle;Max_cycle;Signal;HPM_P1;HPM_P2
2022/06/01 00:01:00;;;;;;;11.80;4.70;;;;;;;;;;10235662;28;20084;-63
2022/06/01 00:05:58;;;;;;;13.40;4.47;;;;;;;;;;10241892;28;20076;-63
2022/06/01 00:10:57;;;;;;;12.00;4.32;;;;;;;;;;10242413;28;20045;-64
2022/06/01 00:15:55;;;;;;;5.75;3.45;;;;;;;;;;10235307;28;20410;-63
2022/06/01 00:20:55;;;;;;;6.75;3.58;;;;;;;;;;10235069;28;20088;-63
2022/06/01 00:25:53;;;;;;;4.47;3.33;;;;;;;;;;10235080;28;20072;-64
2022/06/01 00:30:52;;;;;;;3.83;3.50;;;;;;;;;;10235240;28;20049;-63
2022/06/01 00:35:50;;;;;;;4.00;3.60;;;;;;;;;;10234820;28;20045;-64
2022/06/01 00:40:50;;;;;;;5.63;3.88;;;;;;;;;;10234750;28;20170;-64
2022/06/01 00:45:48;;;;;;;3.72;2.97;;;;;;;;;;10234704;28;20521;-64
2022/06/01 00:50:46;;;;;;;8.20;3.65;;;;;;;;;;10234754;28;20049;-63
2022/06/01 00:55:46;;;;;;;6.50;3.50;;;;;;;;;;10234929;28;20069;-63
2022/06/01 01:00:46;;;;;;;6.55;3.35;;;;;;;;;;10236515;28;20072;-63
2022/06/01 01:05:46;;;;;;;5.60;3.75;;;;;;;;;;10242374;28;20072;-63
2022/06/01 01:10:45;;;;;;;9.60;3.97;;;;;;;;;;10241880;28;20041;-63
2022/06/01 01:15:51;;;;;;;6.22;3.63;;;;;;;;;;10242107;28;20056;-63
2022/06/01 01:20:54;;;;;;;5.35;4.28;;;;;;;;;;10241417;28;20073;-64
2022/06/01 01:25:54;;;;;;;6.78;4.53;;;;;;;;;;10241522;28;20056;-64
2022/06/01 01:30:58;;;;;;;7.75;4.32;;;;;;;;;;10241124;28;20057;-64
2022/06/01 01:36:01;;;;;;;10.18;3.97;;;;;;;;;;10241075;28;20080;-63
2022/06/01 01:41:06;;;;;;;5.60;4.30;;;;;;;;;;10239344;28;20077;-63
2022/06/01 01:46:05;;;;;;;5.88;3.97;;;;;;;;;;10240638;28;20053;-63
2022/06/01 01:51:03;;;;;;;8.63;3.60;;;;;;;;;;10239487;28;20049;-64
2022/06/01 01:56:07;;;;;;;6.70;4.20;;;;;;;;;;10240657;28;20046;-63
2022/06/01 02:01:10;;;;;;;8.15;4.28;;;;;;;;;;10240470;28;20088;-63
2022/06/01 02:06:12;;;;;;;7.93;4.43;;;;;;;;;;10238999;28;20088;-63
2022/06/01 02:16:37;;;;;;;8.27;4.68;;;;;;;;;;10239513;28;20422;-63
2022/06/01 02:21:35;;;;;;;9.75;4.70;;;;;;;;;;10238273;28;20072;-63
2022/06/01 02:26:34;;;;;;;5.95;4.50;;;;;;;;;;10239341;28;20475;-64
2022/06/01 02:31:34;;;;;;;8.25;4.22;;;;;;;;;;10239167;28;20041;-63
2022/06/01 02:36:33;;;;;;;5.97;4.15;;;;;;;;;;10239004;28;20046;-63
2022/06/01 02:46:48;;;;;;;9.77;4.72;;;;;;;;;;10239070;28;20466;-63
2022/06/01 02:51:47;;;;;;;6.68;5.53;;;;;;;;;;10238055;28;20053;-63
2022/06/01 02:56:47;;;;;;;9.60;5.30;;;;;;;;;;10238156;28;20049;-63
2022/06/01 03:01:45;;;;;;;6.80;4.72;;;;;;;;;;10237952;28;20497;-63
2022/06/01 03:06:45;;;;;;;6.57;4.55;;;;;;;;;;10237815;28;20053;-63
2022/06/01 03:12:04;;;;;;;8.43;4.97;;;;;;;;;;10237670;28;20056;-63
2022/06/01 03:17:02;;;;;;;7.97;4.45;;;;;;;;;;10237574;28;20037;-64
2022/06/01 03:22:02;;;;;;;5.18;4.25;;;;;;;;;;10237040;28;20077;-63
2022/06/01 03:27:00;;;;;;;7.40;4.50;;;;;;;;;;10234853;28;20045;-64
2022/06/01 03:31:59;;;;;;;5.35;4.43;;;;;;;;;;10235859;28;20080;-64
2022/06/01 03:36:57;;;;;;;10.43;4.55;;;;;;;;;;10250287;28;20049;-64
2022/06/01 03:41:59;;;;;;;5.40;4.80;;;;;;;;;;10236494;28;20076;-63
2022/06/01 03:47:00;;;;;;;12.10;6.38;;;;;;;;;;10249903;28;20506;-64
2022/06/01 03:51:59;;;;;;;9.02;5.50;;;;;;;;;;10236238;28;20391;-64
2022/06/01 03:56:58;;;;;;;18.83;15.18;;;;;;;;;;10236299;28;20107;-64
2022/06/01 04:02:00;;;;;;;12.25;8.85;;;;;;;;;;10236509;28;20091;-64
2022/06/01 04:06:59;;;;;;;16.90;11.00;;;;;;;;;;10235833;28;20037;-64
2022/06/01 04:11:59;;;;;;;23.58;16.85;;;;;;;;;;10235973;28;20073;-64
2022/06/01 04:16:57;;;;;;;24.45;19.10;;;;;;;;;;10235725;28;20056;-64
2022/06/01 04:21:55;;;;;;;14.52;10.27;;;;;;;;;;10234256;28;20069;-63
2022/06/01 04:26:53;;;;;;;15.65;8.65;;;;;;;;;;10235380;28;20056;-64
2022/06/01 04:31:59;;;;;;;13.63;8.15;;;;;;;;;;10235366;28;20418;-63
2022/06/01 04:36:58;;;;;;;11.23;7.03;;;;;;;;;;10238390;28;20037;-63
2022/06/01 04:41:56;;;;;;;9.50;6.28;;;;;;;;;;10243290;28;20095;-63
2022/06/01 04:46:55;;;;;;;11.25;6.93;;;;;;;;;;10243075;28;20084;-63
2022/06/01 04:51:54;;;;;;;15.85;7.65;;;;;;;;;;10255614;28;20046;-64
2022/06/01 04:56:52;;;;;;;9.68;6.85;;;;;;;;;;10274848;28;20529;-64
2022/06/01 05:01:50;;;;;;;17.83;7.55;;;;;;;;;;10280109;28;20076;-62
2022/06/01 05:06:50;;;;;;;13.98;7.15;;;;;;;;;;10280284;28;20084;-63
2022/06/01 05:11:48;;;;;;;7.13;6.43;;;;;;;;;;10257143;28;20096;-64
2022/06/01 05:16:46;;;;;;;7.40;6.55;;;;;;;;;;10276897;28;20088;-63
2022/06/01 05:21:45;;;;;;;7.18;6.13;;;;;;;;;;10280987;28;20122;-63
2022/06/01 05:26:44;;;;;;;10.90;7.00;;;;;;;;;;10281296;28;20083;-63
2022/06/01 05:31:44;;;;;;;12.05;7.72;;;;;;;;;;10278893;28;20072;-63
2022/06/01 05:36:42;;;;;;;19.73;8.15;;;;;;;;;;10278372;28;20152;-65
2022/06/01 05:41:40;;;;;;;11.85;7.75;;;;;;;;;;10274090;28;20073;-64
2022/06/01 05:46:40;;;;;;;9.50;6.80;;;;;;;;;;10276391;28;20083;-63
2022/06/01 05:51:38;;;;;;;11.10;7.30;;;;;;;;;;10272419;28;20068;-63
2022/06/01 05:56:36;;;;;;;15.23;5.97;;;;;;;;;;10277317;28;20084;-64
2022/06/01 06:01:35;;;;;;;9.23;7.50;;;;;;;;;;10278407;28;20088;-64
2022/06/01 06:06:35;;;;;;;18.08;7.78;;;;;;;;;;10277096;28;20069;-64
2022/06/01 06:11:34;;;;;;;17.77;6.82;;;;;;;;;;10278221;28;20060;-63
2022/06/01 06:16:34;;;;;;;10.98;7.00;;;;;;;;;;10276970;28;20502;-64
2022/06/01 06:21:33;;;;;;;11.38;6.97;;;;;;;;;;10277716;28;20072;-64
2022/06/01 06:26:34;;;;;;;20.05;8.27;;;;;;;;;;10277708;28;20537;-64
2022/06/01 06:31:32;;;;;;;14.63;6.35;;;;;;;;;;10240347;28;1119526;-64
2022/06/01 06:36:30;;;;;;;9.80;6.80;;;;;;;;;;10277939;28;20041;-64
2022/06/01 06:41:28;;;;;;;10.30;6.85;;;;;;;;;;10278139;28;20103;-65
2022/06/01 06:52:22;;;;;;;12.80;7.90;;;;;;;;;;10242094;28;20069;-64
2022/06/01 06:57:21;;;;;;;16.92;7.38;;;;;;;;;;10253545;28;20076;-64
2022/06/01 07:02:19;;;;;;;14.45;7.60;;;;;;;;;;10269180;28;20081;-64
2022/06/01 07:07:17;;;;;;;17.50;7.50;;;;;;;;;;10278492;28;20072;-64
2022/06/01 07:12:17;;;;;;;18.20;7.60;;;;;;;;;;10278384;28;20057;-64
2022/06/01 07:17:15;;;;;;;14.93;7.40;;;;;;;;;;10267619;28;20071;-64
2022/06/01 07:22:13;;;;;;;12.15;7.85;;;;;;;;;;10257212;28;20088;-64
2022/06/01 07:27:11;;;;;;;21.90;8.32;;;;;;;;;;10260573;28;20045;-64
2022/06/01 07:32:11;;;;;;;17.10;7.50;;;;;;;;;;10277257;28;20089;-64
2022/06/01 07:47:41;;;;;;;16.55;7.80;;;;;;;;;;10269721;28;20080;-64
2022/06/01 07:53:00;;;;;;;15.77;7.93;;;;;;;;;;10275590;28;20068;-64
2022/06/01 07:57:58;;;;;;;14.00;7.95;;;;;;;;;;10275567;28;20041;-63
2022/06/01 08:02:58;;;;;;;13.07;7.05;;;;;;;;;;10275332;28;20076;-64
2022/06/01 08:07:56;;;;;;;10.23;6.95;;;;;;;;;;10275312;28;20041;-64
2022/06/01 08:13:09;;;;;;;18.20;6.88;;;;;;;;;;10275175;28;20091;-64
2022/06/01 08:18:10;;;;;;;11.38;7.68;;;;;;;;;;10274876;28;20049;-64
2022/06/01 08:23:08;;;;;;;13.40;6.97;;;;;;;;;;10274883;28;20076;-64
2022/06/01 08:28:07;;;;;;;21.73;7.38;;;;;;;;;;10274540;28;20086;-64
2022/06/01 08:33:06;;;;;;;16.75;7.03;;;;;;;;;;10272288;28;20085;-64
2022/06/01 08:38:07;;;;;;;17.83;7.72;;;;;;;;;;10274773;28;20053;-63
2022/06/01 08:43:06;;;;;;;11.85;7.15;;;;;;;;;;10274702;28;20088;-63
2022/06/01 08:48:05;;;;;;;12.25;7.03;;;;;;;;;;10273061;28;20077;-63
2022/06/01 08:53:04;;;;;;;14.77;6.90;;;;;;;;;;10274221;28;20033;-64
2022/06/01 08:58:07;;;;;;;15.10;7.65;;;;;;;;;;10272980;28;20486;-63
2022/06/01 09:03:08;;;;;;;13.70;6.45;;;;;;;;;;10273392;28;20555;-64
2022/06/01 09:08:10;;;;;;;14.40;5.90;;;;;;;;;;10274367;28;20041;-63
2022/06/01 09:13:12;;;;;;;14.45;7.35;;;;;;;;;;10272669;28;20099;-64
2022/06/01 09:18:10;;;;;;;14.57;7.22;;;;;;;;;;10272794;28;20501;-63
2022/06/01 09:23:10;;;;;;;12.43;6.50;;;;;;;;;;10277487;28;20076;-64
2022/06/01 09:28:19;;;;;;;9.73;6.28;;;;;;;;;;10280439;28;20053;-64
2022/06/01 09:33:22;;;;;;;18.17;7.13;;;;;;;;;;10280356;28;20068;-62
2022/06/01 09:38:34;;;;;;;13.47;6.43;;;;;;;;;;10281541;28;20182;-62
2022/06/01 09:43:33;;;;;;;10.18;5.78;;;;;;;;;;10281109;28;20091;-62
2022/06/01 09:48:33;;;;;;;19.27;7.88;;;;;;;;;;10281012;28;20053;-63
2022/06/01 09:53:35;;;;;;;11.43;6.53;;;;;;;;;;10280819;28;20049;-63
2022/06/01 10:09:10;;;;;;;9.07;5.13;;;;;;;;;;10279929;28;20467;-63
2022/06/01 10:14:21;;;;;;;7.68;4.82;;;;;;;;;;10279854;28;20041;-64
2022/06/01 10:19:21;;;;;;;13.80;6.03;;;;;;;;;;10280174;28;20041;-63
2022/06/01 10:24:23;;;;;;;8.48;5.40;;;;;;;;;;10279664;28;20076;-63
2022/06/01 10:29:26;;;;;;;9.57;6.03;;;;;;;;;;10279064;28;20064;-63
2022/06/01 10:34:26;;;;;;;7.55;4.75;;;;;;;;;;10278271;28;20045;-62
2022/06/01 10:39:26;;;;;;;9.65;5.93;;;;;;;;;;10279076;28;20068;-62
2022/06/01 10:44:30;;;;;;;39.17;8.68;;;;;;;;;;10269898;28;20072;-64
2022/06/01 10:49:39;;;;;;;9.07;4.78;;;;;;;;;;10240261;28;20048;-65
2022/06/01 10:54:41;;;;;;;9.30;5.03;;;;;;;;;;10238113;28;20045;-64
2022/06/01 10:59:41;;;;;;;5.65;4.30;;;;;;;;;;10261991;28;20052;-64
2022/06/01 11:04:50;;;;;;;12.38;5.38;;;;;;;;;;10255693;28;20489;-64
2022/06/01 11:09:55;;;;;;;11.55;4.32;;;;;;;;;;10270925;28;20093;-63
2022/06/01 11:15:03;;;;;;;11.68;5.57;;;;;;;;;;10273430;28;20048;-63
2022/06/01 11:20:14;;;;;;;10.30;4.57;;;;;;;;;;10265679;28;20069;-64
2022/06/01 11:25:18;;;;;;;7.85;4.53;;;;;;;;;;10277251;28;20077;-64
2022/06/01 11:30:18;;;;;;;9.68;5.20;;;;;;;;;;10277427;28;20064;-63
2022/06/01 11:35:20;;;;;;;10.43;4.35;;;;;;;;;;10276966;28;20048;-63
2022/06/01 11:40:22;;;;;;;6.78;4.22;;;;;;;;;;10276934;28;20044;-64
2022/06/01 11:45:23;;;;;;;7.82;3.67;;;;;;;;;;10276467;28;20076;-64
2022/06/01 11:50:25;;;;;;;5.93;3.58;;;;;;;;;;10276753;28;20049;-64
2022/06/01 11:55:29;;;;;;;8.45;3.90;;;;;;;;;;10276166;28;20078;-62
2022/06/01 12:00:34;;;;;;;7.65;3.88;;;;;;;;;;10274932;28;20498;-64
2022/06/01 12:05:34;;;;;;;4.72;3.50;;;;;;;;;;10276124;28;20080;-64
2022/06/01 12:10:33;;;;;;;6.88;3.50;;;;;;;;;;10274349;28;20513;-64
2022/06/01 12:15:35;;;;;;;6.88;3.78;;;;;;;;;;10275829;28;20047;-64
2022/06/01 12:20:44;;;;;;;9.20;4.20;;;;;;;;;;10274392;28;20095;-64
2022/06/01 12:31:20;;;;;;;5.90;4.10;;;;;;;;;;10276014;28;20084;-64
2022/06/01 12:36:19;;;;;;;5.90;3.72;;;;;;;;;;10275843;28;20339;-64
2022/06/01 12:41:19;;;;;;;4.93;3.20;;;;;;;;;;10274553;28;20047;-64
2022/06/01 12:46:25;;;;;;;6.82;4.32;;;;;;;;;;10275391;28;20073;-64
2022/06/01 12:51:24;;;;;;;6.57;4.18;;;;;;;;;;10274513;28;20052;-64
2022/06/01 12:56:26;;;;;;;4.65;3.92;;;;;;;;;;10272568;28;20075;-64
2022/06/01 13:01:30;;;;;;;9.70;4.22;;;;;;;;;;10283190;28;20048;-64
2022/06/01 13:06:30;;;;;;;5.85;4.10;;;;;;;;;;10282816;28;20174;-65
2022/06/01 13:11:29;;;;;;;9.18;4.15;;;;;;;;;;10282701;28;20056;-63
2022/06/01 13:16:37;;;;;;;5.72;3.75;;;;;;;;;;10283039;28;20080;-64
2022/06/01 13:21:37;;;;;;;11.88;6.97;;;;;;;;;;10282370;28;20088;-65
2022/06/01 13:26:36;;;;;;;5.53;3.35;;;;;;;;;;10281851;28;20505;-64
2022/06/01 13:31:37;;;;;;;7.55;3.75;;;;;;;;;;10278584;28;20080;-64
2022/06/01 13:36:40;;;;;;;9.90;4.22;;;;;;;;;;10280188;28;20045;-64
2022/06/01 13:41:41;;;;;;;7.22;3.33;;;;;;;;;;10278196;28;20084;-65
2022/06/01 13:46:41;;;;;;;;;;;;;;;;;;10282118;28;20072;-62
2022/06/01 13:51:42;;;;;;;7.95;3.33;;;;;;;;;;10281251;28;19920;-62
2022/06/01 13:56:42;;;;;;;8.30;2.97;;;;;;;;;;10279167;28;20044;-64
2022/06/01 14:01:42;;;;;;;12.18;3.45;;;;;;;;;;10250995;28;20501;-64
2022/06/01 14:06:43;;;;;;;3.67;2.60;;;;;;;;;;10236139;28;20185;-64
2022/06/01 14:11:42;;;;;;;3.28;2.85;;;;;;;;;;10250236;28;20530;-64
2022/06/01 14:16:48;;;;;;;4.53;3.10;;;;;;;;;;10238882;28;20088;-64
2022/06/01 14:21:51;;;;;;;4.10;3.10;;;;;;;;;;10239829;28;20046;-65
2022/06/01 14:32:05;;;;;;;8.93;2.78;;;;;;;;;;10239864;28;20045;-64
2022/06/01 14:37:05;;;;;;;4.35;2.15;;;;;;;;;;10239363;28;20037;-65
2022/06/01 14:42:05;;;;;;;6.38;4.22;;;;;;;;;;10237706;28;20072;-65
2022/06/01 14:47:03;;;;;;;7.55;3.45;;;;;;;;;;10238653;28;20087;-64
2022/06/01 14:52:04;;;;;;;4.70;3.13;;;;;;;;;;10238632;28;20049;-65
2022/06/01 14:57:04;;;;;;;7.03;2.63;;;;;;;;;;10238276;28;20295;-65
2022/06/01 15:02:03;;;;;;;10.93;2.90;;;;;;;;;;10238183;28;20080;-65
2022/06/01 15:07:02;;;;;;;4.22;2.83;;;;;;;;;;10237895;28;20073;-65
2022/06/01 15:12:00;;;;;;;4.00;2.78;;;;;;;;;;10251836;28;20057;-65
2022/06/01 15:17:00;;;;;;;6.07;3.40;;;;;;;;;;10237166;28;20531;-65
2022/06/01 15:21:59;;;;;;;6.40;2.92;;;;;;;;;;10237342;28;20045;-65
2022/06/01 15:26:57;;;;;;;3.95;3.55;;;;;;;;;;10237242;28;20077;-65
2022/06/01 15:42:33;;;;;;;8.07;3.00;;;;;;;;;;10236592;28;20495;-65
2022/06/01 15:47:32;;;;;;;3.58;2.55;;;;;;;;;;10236045;28;20338;-65
2022/06/01 15:52:32;;;;;;;5.85;2.90;;;;;;;;;;10236077;28;20077;-65
2022/06/01 15:57:31;;;;;;;7.47;3.58;;;;;;;;;;10235944;28;20081;-64
2022/06/01 16:02:31;;;;;;;7.30;4.28;;;;;;;;;;10235237;28;20083;-66
2022/06/01 16:07:29;;;;;;;2.92;2.50;;;;;;;;;;10235081;28;20077;-65
2022/06/01 16:12:29;;;;;;;5.75;3.45;;;;;;;;;;10235598;28;20073;-66
2022/06/01 16:17:29;;;;;;;6.97;3.53;;;;;;;;;;10235109;28;20640;-65
2022/06/01 16:22:33;;;;;;;6.43;3.67;;;;;;;;;;10235069;28;20495;-65
2022/06/01 16:27:33;;;;;;;11.57;3.45;;;;;;;;;;10235180;28;20514;-65
2022/06/01 16:32:32;;;;;;;5.68;3.38;;;;;;;;;;10240373;28;20053;-65
2022/06/01 16:37:31;;;;;;;3.25;2.67;;;;;;;;;;10242926;28;20457;-65
2022/06/01 16:42:31;;;;;;;5.05;2.88;;;;;;;;;;10242824;28;20049;-65
2022/06/01 16:47:30;;;;;;;4.65;2.88;;;;;;;;;;10262943;28;20076;-65
2022/06/01 16:52:33;;;;;;;5.43;3.60;;;;;;;;;;10244213;28;20046;-65
2022/06/01 16:57:31;;;;;;;10.13;3.40;;;;;;;;;;10242322;28;20044;-65
2022/06/01 17:02:31;;;;;;;7.78;4.00;;;;;;;;;;10242713;28;20046;-65
2022/06/01 17:07:29;;;;;;;11.27;4.97;;;;;;;;;;10241827;28;20486;-64
2022/06/01 17:12:28;;;;;;;11.27;5.28;;;;;;;;;;10247791;28;20057;-65
2022/06/01 17:17:28;;;;;;;10.07;4.97;;;;;;;;;;10248924;28;20056;-65
2022/06/01 17:22:34;;;;;;;8.73;6.22;;;;;;;;;;10241719;28;20533;-65
2022/06/01 17:27:33;;;;;;;16.05;5.70;;;;;;;;;;10254897;28;20089;-65
2022/06/01 17:32:32;;;;;;;9.48;3.85;;;;;;;;;;10241407;28;20076;-65
2022/06/01 17:37:30;;;;;;;4.47;3.88;;;;;;;;;;10240643;28;20099;-65
2022/06/01 17:42:30;;;;;;;6.75;5.32;;;;;;;;;;10253264;28;20061;-64
2022/06/01 17:47:29;;;;;;;5.93;4.82;;;;;;;;;;10240409;28;20562;-64
2022/06/01 17:52:27;;;;;;;8.57;7.65;;;;;;;;;;10238923;28;20058;-64
2022/06/01 17:57:25;;;;;;;8.68;7.63;;;;;;;;;;10240097;28;20034;-64
2022/06/01 18:02:25;;;;;;;7.20;3.78;;;;;;;;;;10240363;28;20077;-64
2022/06/01 18:07:24;;;;;;;7.55;6.35;;;;;;;;;;10239662;28;20084;-64
2022/06/01 18:12:22;;;;;;;9.98;7.68;;;;;;;;;;10239860;28;20068;-64
2022/06/01 18:17:21;;;;;;;10.23;5.25;;;;;;;;;;10237798;28;20056;-65
2022/06/01 18:22:21;;;;;;;8.05;4.50;;;;;;;;;;10240147;28;20052;-65
2022/06/01 18:27:20;;;;;;;7.70;3.60;;;;;;;;;;10239760;28;20080;-65
2022/06/01 18:32:19;;;;;;;5.88;3.42;;;;;;;;;;10240116;28;20096;-65
2022/06/01 18:37:21;;;;;;;18.55;8.82;;;;;;;;;;10239535;28;20050;-65
2022/06/01 18:42:19;;;;;;;6.82;4.10;;;;;;;;;;10238165;28;20050;-65
2022/06/01 18:47:17;;;;;;;8.10;3.92;;;;;;;;;;10238994;28;20088;-63
2022/06/01 18:52:18;;;;;;;5.80;4.40;;;;;;;;;;10239027;28;20045;-64
2022/06/01 18:57:17;;;;;;;9.13;3.65;;;;;;;;;;10236756;28;20053;-64
2022/06/01 19:02:16;;;;;;;5.63;3.72;;;;;;;;;;10236740;28;20064;-64
2022/06/01 19:07:18;;;;;;;7.90;3.97;;;;;;;;;;10238203;28;20080;-64
2022/06/01 19:12:18;;;;;;;6.03;4.03;;;;;;;;;;10237233;28;20485;-64
2022/06/01 19:17:18;;;;;;;6.63;3.95;;;;;;;;;;10237669;28;20426;-64
2022/06/01 19:22:22;;;;;;;6.10;4.15;;;;;;;;;;10237850;28;20080;-64
2022/06/01 19:27:22;;;;;;;8.00;4.18;;;;;;;;;;10236743;28;20045;-64
2022/06/01 19:32:36;;;;;;;7.05;4.68;;;;;;;;;;10236344;28;20068;-64
2022/06/01 19:48:08;;;;;;;12.32;4.95;;;;;;;;;;10250612;28;20100;-63
2022/06/01 19:53:07;;;;;;;10.65;5.03;;;;;;;;;;10250947;28;20060;-64
2022/06/01 19:58:07;;;;;;;7.88;4.60;;;;;;;;;;10253960;28;20060;-64
2022/06/01 20:03:05;;;;;;;13.40;4.07;;;;;;;;;;10273329;28;20079;-64
2022/06/01 20:08:04;;;;;;;5.90;4.55;;;;;;;;;;10275990;28;20091;-64
2022/06/01 20:13:16;;;;;;;7.30;4.60;;;;;;;;;;10273730;28;20072;-64
2022/06/01 20:18:16;;;;;;;8.77;3.63;;;;;;;;;;10273159;28;20115;-64
2022/06/01 20:23:15;;;;;;;4.45;3.67;;;;;;;;;;10270971;28;20084;-64
2022/06/01 20:28:14;;;;;;;9.60;4.00;;;;;;;;;;10272366;28;20518;-64
2022/06/01 20:33:12;;;;;;;6.82;4.22;;;;;;;;;;10272806;28;20083;-64
2022/06/01 20:38:13;;;;;;;4.47;3.35;;;;;;;;;;10275547;28;20053;-64
2022/06/01 20:43:11;;;;;;;6.68;3.95;;;;;;;;;;10275036;28;20037;-64
2022/06/01 20:48:10;;;;;;;10.95;4.18;;;;;;;;;;10274941;28;20077;-64
2022/06/01 20:53:08;;;;;;;5.53;3.50;;;;;;;;;;10274873;28;20045;-65
2022/06/01 20:58:08;;;;;;;6.40;4.28;;;;;;;;;;10274755;28;20402;-64
2022/06/01 21:03:06;;;;;;;6.25;3.88;;;;;;;;;;10274509;28;20041;-64
2022/06/01 21:08:06;;;;;;;5.65;3.80;;;;;;;;;;10274695;28;20072;-64
2022/06/01 21:13:05;;;;;;;4.38;4.00;;;;;;;;;;10270801;28;20037;-64
2022/06/01 21:18:05;;;;;;;5.18;4.22;;;;;;;;;;10258482;28;20415;-64
2022/06/01 21:23:04;;;;;;;5.63;4.45;;;;;;;;;;10241863;28;20495;-64
2022/06/01 21:28:02;;;;;;;5.97;4.03;;;;;;;;;;10241058;28;20099;-64
2022/06/01 21:33:01;;;;;;;8.60;4.03;;;;;;;;;;10241442;28;20084;-64
2022/06/01 21:38:00;;;;;;;5.15;3.55;;;;;;;;;;10241272;28;20079;-64
2022/06/01 21:42:59;;;;;;;4.45;3.58;;;;;;;;;;10240982;28;20060;-64
2022/06/01 21:47:57;;;;;;;7.05;4.13;;;;;;;;;;10241338;28;20081;-64
2022/06/01 21:52:56;;;;;;;6.47;4.30;;;;;;;;;;10240409;28;20046;-64
2022/06/01 21:57:55;;;;;;;5.18;3.42;;;;;;;;;;10240124;28;20050;-64
2022/06/01 22:02:54;;;;;;;6.25;3.72;;;;;;;;;;10240296;28;20053;-63
2022/06/01 22:07:53;;;;;;;4.82;3.83;;;;;;;;;;10239778;28;20080;-64
2022/06/01 22:12:51;;;;;;;4.25;3.85;;;;;;;;;;10239568;28;20406;-64
2022/06/01 22:17:51;;;;;;;4.07;3.50;;;;;;;;;;10240090;28;20053;-63
2022/06/01 22:22:49;;;;;;;5.40;3.85;;;;;;;;;;10239214;28;20428;-63
2022/06/01 22:27:48;;;;;;;4.20;3.80;;;;;;;;;;10238675;28;20111;-62
2022/06/01 22:32:46;;;;;;;12.35;4.70;;;;;;;;;;10250060;28;20064;-63
2022/06/01 22:37:47;;;;;;;5.82;4.00;;;;;;;;;;10240997;28;20045;-64
2022/06/01 22:42:45;;;;;;;5.78;3.65;;;;;;;;;;10238623;28;20057;-63
2022/06/01 22:47:46;;;;;;;3.85;3.45;;;;;;;;;;10238408;28;20537;-64
2022/06/01 22:52:49;;;;;;;5.38;4.03;;;;;;;;;;10238149;28;20046;-63
2022/06/01 22:57:47;;;;;;;5.82;4.35;;;;;;;;;;10237873;28;20069;-64
2022/06/01 23:02:45;;;;;;;4.13;3.72;;;;;;;;;;10239056;28;20092;-64
2022/06/01 23:07:44;;;;;;;6.32;3.97;;;;;;;;;;10237468;28;20090;-63
2022/06/01 23:12:44;;;;;;;7.38;4.00;;;;;;;;;;10237292;28;20495;-64
2022/06/01 23:17:42;;;;;;;6.10;3.83;;;;;;;;;;10237608;28;20049;-64
2022/06/01 23:22:40;;;;;;;6.30;3.58;;;;;;;;;;10236972;28;20080;-64
2022/06/01 23:27:38;;;;;;;6.47;3.83;;;;;;;;;;10236451;28;20096;-64
2022/06/01 23:32:47;;;;;;;6.05;4.15;;;;;;;;;;10236580;28;20042;-64
2022/06/01 23:37:54;;;;;;;9.75;4.13;;;;;;;;;;10236952;28;20517;-63
2022/06/01 23:42:59;;;;;;;5.13;4.10;;;;;;;;;;10235710;28;20038;-63
2022/06/01 23:48:04;;;;;;;5.80;4.20;;;;;;;;;;10236492;28;20080;-63
2022/06/01 23:53:16;;;;;;;7.78;4.15;;;;;;;;;;10240674;28;20065;-63
2022/06/01 23:58:23;;;;;;;6.85;4.30;;;;;;;;;;10244048;28;20049;-63
